createdAt,value
2023-03-21T00:00:55.879Z,36.77
2023-03-21T00:03:27.588Z,36.23
2023-03-21T00:05:55.686Z,34.47
2023-03-21T00:08:26.413Z,35.30
2023-03-21T00:10:58.388Z,35.20
2023-03-21T00:13:28.151Z,34.50
2023-03-21T00:16:20.950Z,37.90
2023-03-21T00:18:48.780Z,38.20
2023-03-21T00:24:07.978Z,36.07
2023-03-21T00:26:36.167Z,36.67
2023-03-21T00:29:04.270Z,37.40
2023-03-21T00:31:32.195Z,38.50
2023-03-21T00:34:02.472Z,39.20
2023-03-21T00:36:32.389Z,38.20
2023-03-21T00:39:01.218Z,40.00
2023-03-21T00:41:42.082Z,37.67
2023-03-21T00:44:13.608Z,38.53
2023-03-21T00:46:51.700Z,39.67
2023-03-21T00:49:27.650Z,35.73
2023-03-21T00:51:59.488Z,36.33
2023-03-21T00:54:33.605Z,32.60
2023-03-21T00:57:03.134Z,33.43
2023-03-21T00:59:31.830Z,37.30
2023-03-21T01:02:00.799Z,34.73
2023-03-21T01:04:30.490Z,36.10
2023-03-21T01:06:58.441Z,33.53
2023-03-21T01:09:26.500Z,34.87
2023-03-21T01:11:54.735Z,34.33
2023-03-21T01:14:24.302Z,37.37
2023-03-21T01:16:55.059Z,35.37
2023-03-21T01:19:37.602Z,34.80
2023-03-21T01:22:15.532Z,38.27
2023-03-21T01:24:53.137Z,39.30
2023-03-21T01:27:22.602Z,35.73
2023-03-21T01:29:50.929Z,36.97
2023-03-21T01:32:18.874Z,38.47
2023-03-21T01:34:46.838Z,36.37
2023-03-21T01:37:17.736Z,38.10
2023-03-21T01:39:49.117Z,37.13
2023-03-21T01:42:17.106Z,38.70
2023-03-21T01:44:58.643Z,43.60
2023-03-21T01:47:35.434Z,39.57
2023-03-21T01:50:23.479Z,37.63
2023-03-21T01:53:04.005Z,44.80
2023-03-21T01:55:36.495Z,41.63
2023-03-21T01:58:14.075Z,44.27
2023-03-21T02:00:50.685Z,42.43
2023-03-21T02:03:36.077Z,43.00
2023-03-21T02:06:32.335Z,47.20
2023-03-21T02:09:15.724Z,44.53
2023-03-21T02:11:46.497Z,46.20
2023-03-21T02:14:26.577Z,47.67
2023-03-21T02:17:07.870Z,44.23
2023-03-21T02:20:29.030Z,46.03
2023-03-21T02:23:27.642Z,46.33
2023-03-21T02:26:41.999Z,46.67
2023-03-21T02:29:29.564Z,52.70
2023-03-21T02:32:17.910Z,52.87
2023-03-21T02:35:24.105Z,46.83
2023-03-21T02:38:00.792Z,45.80
2023-03-21T02:40:35.656Z,48.43
2023-03-21T02:43:22.183Z,47.20
2023-03-21T02:45:55.590Z,49.27
2023-03-21T02:48:35.511Z,49.17
2023-03-21T02:51:13.747Z,48.17
2023-03-21T02:53:51.780Z,49.30
2023-03-21T02:56:26.080Z,49.60
2023-03-21T02:58:59.359Z,49.87
2023-03-21T03:01:28.984Z,51.93
2023-03-21T03:03:57.034Z,49.60
2023-03-21T03:06:30.473Z,47.83
2023-03-21T03:09:17.812Z,52.80
2023-03-21T03:11:46.916Z,52.63
2023-03-21T03:14:56.546Z,55.73
2023-03-21T03:17:35.910Z,53.63
2023-03-21T03:20:20.945Z,54.93
2023-03-21T03:22:57.356Z,55.97
2023-03-21T03:25:42.199Z,56.33
2023-03-21T03:28:15.589Z,62.43
2023-03-21T03:30:57.407Z,57.60
2023-03-21T03:33:37.980Z,59.47
2023-03-21T03:36:10.912Z,57.97
2023-03-21T03:38:40.141Z,61.53
2023-03-21T03:41:15.397Z,61.37
2023-03-21T03:43:52.231Z,62.37
2023-03-21T03:46:26.377Z,62.33
2023-03-21T03:48:59.257Z,59.13
2023-03-21T03:51:30.996Z,63.30
2023-03-21T03:54:21.613Z,58.13
2023-03-21T03:56:51.775Z,57.93
2023-03-21T03:59:21.908Z,62.13
2023-03-21T04:02:04.453Z,56.87
2023-03-21T04:04:32.561Z,59.40
2023-03-21T04:07:00.567Z,61.90
2023-03-21T04:09:42.573Z,57.97
2023-03-21T04:12:14.606Z,58.97
2023-03-21T04:14:51.874Z,56.67
2023-03-21T04:17:20.290Z,54.50
2023-03-21T04:19:55.574Z,58.47
2023-03-21T04:22:26.985Z,54.13
2023-03-21T04:24:55.190Z,59.13
2023-03-21T04:27:24.645Z,55.20
2023-03-21T04:30:25.784Z,53.00
2023-03-21T04:33:01.258Z,57.40
2023-03-21T04:35:32.014Z,56.30
2023-03-21T04:38:03.549Z,54.33
2023-03-21T04:40:31.648Z,58.33
2023-03-21T04:43:01.268Z,55.30
2023-03-21T04:45:29.738Z,59.83
2023-03-21T04:47:58.269Z,60.27
2023-03-21T04:50:26.487Z,65.27
2023-03-21T04:52:54.373Z,62.27
2023-03-21T04:55:23.003Z,62.50
2023-03-21T04:57:50.873Z,65.30
2023-03-21T05:00:21.031Z,64.97
2023-03-21T05:02:49.228Z,67.40
2023-03-21T05:05:17.218Z,64.87
2023-03-21T05:07:46.244Z,66.90
2023-03-21T05:10:14.228Z,63.83
2023-03-21T05:12:43.201Z,64.10
2023-03-21T05:15:11.480Z,62.63
2023-03-21T05:17:42.668Z,60.13
2023-03-21T05:20:12.037Z,68.03
2023-03-21T05:22:41.282Z,65.33
2023-03-21T05:25:14.129Z,62.17
2023-03-21T05:28:03.746Z,67.83
2023-03-21T05:30:33.437Z,75.83
2023-03-21T05:33:04.474Z,67.77
2023-03-21T05:35:32.994Z,71.73
2023-03-21T05:38:04.368Z,68.97
2023-03-21T05:40:40.357Z,67.33
2023-03-21T05:43:09.337Z,66.63
2023-03-21T05:45:37.488Z,65.37
2023-03-21T05:48:07.928Z,61.27
2023-03-21T05:50:47.685Z,61.17
2023-03-21T05:53:21.779Z,60.73
2023-03-21T05:55:50.870Z,60.80
2023-03-21T05:58:38.740Z,62.90
2023-03-21T06:01:07.749Z,63.40
2023-03-21T06:03:40.390Z,63.57
2023-03-21T06:06:14.288Z,62.13
2023-03-21T06:08:51.257Z,62.10
2023-03-21T06:11:26.857Z,60.37
2023-03-21T06:14:12.866Z,60.47
2023-03-21T06:16:42.168Z,59.17
2023-03-21T06:19:11.714Z,57.30
2023-03-21T06:22:01.019Z,55.30
2023-03-21T06:24:29.285Z,55.60
2023-03-21T06:26:57.375Z,56.60
2023-03-21T06:29:29.008Z,57.00
2023-03-21T06:31:57.647Z,54.37
2023-03-21T06:34:27.061Z,57.80
2023-03-21T06:36:55.169Z,51.90
2023-03-21T06:39:28.729Z,55.43
2023-03-21T06:41:56.931Z,56.00
2023-03-21T06:44:26.078Z,58.23
2023-03-21T06:47:01.128Z,55.07
2023-03-21T06:49:30.975Z,52.90
2023-03-21T06:52:02.652Z,53.17
2023-03-21T06:54:30.827Z,54.17
2023-03-21T06:57:08.899Z,57.23
2023-03-21T06:59:41.452Z,56.53
2023-03-21T07:02:12.115Z,56.63
2023-03-21T07:04:47.650Z,59.30
2023-03-21T07:07:20.611Z,58.20
2023-03-21T07:09:48.599Z,54.30
2023-03-21T07:12:17.417Z,53.97
2023-03-21T07:15:01.130Z,56.53
2023-03-21T07:17:29.405Z,54.00
2023-03-21T07:20:00.007Z,53.60
2023-03-21T07:22:28.103Z,54.00
2023-03-21T07:25:04.836Z,55.77
2023-03-21T07:27:41.042Z,49.50
2023-03-21T07:30:11.500Z,51.70
2023-03-21T07:32:40.824Z,52.63
2023-03-21T07:35:13.726Z,56.70
2023-03-21T07:37:42.988Z,50.97
2023-03-21T07:40:16.176Z,51.43
2023-03-21T07:42:44.358Z,47.30
2023-03-21T07:45:16.528Z,49.13
2023-03-21T07:47:46.701Z,46.83
2023-03-21T07:50:16.535Z,50.67
2023-03-21T07:52:46.162Z,46.53
2023-03-21T07:55:14.273Z,48.53
2023-03-21T07:57:42.294Z,48.77
2023-03-21T08:00:12.632Z,45.97
2023-03-21T08:02:43.645Z,42.90
2023-03-21T08:05:12.020Z,49.53
2023-03-21T08:07:41.279Z,44.97
2023-03-21T08:10:11.623Z,49.67
2023-03-21T08:12:39.709Z,52.17
2023-03-21T08:15:08.772Z,52.17
2023-03-21T08:17:38.029Z,51.77
2023-03-21T08:20:09.065Z,53.13
2023-03-21T08:22:37.699Z,50.17
2023-03-21T08:25:08.738Z,54.03
2023-03-21T08:27:36.676Z,52.47
2023-03-21T08:30:05.171Z,52.50
2023-03-21T08:32:33.700Z,51.40
2023-03-21T08:35:02.518Z,54.40
2023-03-21T08:37:31.142Z,54.60
2023-03-21T08:39:59.051Z,51.57
2023-03-21T08:42:28.390Z,53.87
2023-03-21T08:44:56.412Z,49.80
2023-03-21T08:47:24.354Z,53.63
2023-03-21T08:49:52.319Z,50.30
2023-03-21T08:52:20.241Z,53.33
2023-03-21T08:54:48.448Z,50.67
2023-03-21T08:57:16.410Z,50.87
2023-03-21T08:59:45.836Z,47.87
2023-03-21T09:02:15.724Z,47.83
2023-03-21T09:04:44.830Z,48.93
2023-03-21T09:07:14.932Z,52.60
2023-03-21T09:09:43.686Z,51.17
2023-03-21T09:12:11.635Z,51.80
2023-03-21T09:14:39.608Z,52.40
2023-03-21T09:17:08.885Z,52.53
2023-03-21T09:19:38.790Z,50.83
2023-03-21T09:22:14.265Z,51.43
2023-03-21T09:24:42.703Z,53.10
2023-03-21T09:27:11.192Z,50.93
2023-03-21T09:29:39.202Z,51.67
2023-03-21T09:32:08.802Z,50.77
2023-03-21T09:34:41.045Z,54.90
2023-03-21T09:37:13.734Z,47.43
2023-03-21T09:39:42.790Z,47.60
2023-03-21T09:42:34.593Z,49.03
2023-03-21T09:45:12.353Z,46.00
2023-03-21T09:47:49.685Z,49.27
2023-03-21T09:50:21.909Z,45.10
2023-03-21T09:52:56.845Z,43.50
2023-03-21T09:55:31.090Z,44.03
2023-03-21T09:58:06.650Z,39.70
2023-03-21T10:00:40.126Z,41.13
2023-03-21T10:03:23.534Z,40.83
2023-03-21T10:05:54.612Z,36.63
2023-03-21T10:08:27.248Z,40.83
2023-03-21T10:10:59.909Z,39.00
2023-03-21T10:13:30.499Z,37.17
2023-03-21T10:16:01.928Z,39.13
2023-03-21T10:18:32.338Z,40.50
2023-03-21T10:21:01.067Z,39.53
2023-03-21T10:23:30.836Z,43.10
2023-03-21T10:26:02.049Z,45.13
2023-03-21T10:28:46.203Z,46.50
2023-03-21T10:31:25.096Z,43.83
2023-03-21T10:33:58.326Z,46.37
2023-03-21T10:36:30.134Z,45.73
2023-03-21T10:39:01.705Z,48.10
2023-03-21T10:41:29.869Z,46.00
2023-03-21T10:44:11.430Z,46.03
2023-03-21T10:46:39.865Z,43.73
2023-03-21T10:49:10.050Z,42.77
2023-03-21T10:51:40.479Z,41.10
2023-03-21T10:54:13.236Z,37.97
2023-03-21T10:56:46.793Z,36.87
2023-03-21T10:59:20.578Z,36.83
2023-03-21T11:01:51.530Z,34.07
2023-03-21T11:04:25.020Z,38.87
2023-03-21T11:06:55.876Z,37.17
2023-03-21T11:09:25.989Z,36.90
2023-03-21T11:11:55.853Z,33.47
2023-03-21T11:14:34.278Z,36.97
2023-03-21T11:17:02.570Z,32.77
2023-03-21T11:19:34.676Z,32.17
2023-03-21T11:22:07.832Z,30.53
2023-03-21T11:24:37.507Z,33.47
2023-03-21T11:27:08.788Z,33.23
2023-03-21T11:29:39.190Z,32.97
2023-03-21T11:32:12.826Z,34.03
2023-03-21T11:34:47.445Z,31.50
2023-03-21T11:37:26.206Z,33.47
2023-03-21T11:40:08.929Z,32.10
2023-03-21T11:42:44.836Z,32.30
2023-03-21T11:45:15.249Z,31.07
2023-03-21T11:47:43.670Z,28.13
2023-03-21T11:50:19.315Z,28.80
2023-03-21T11:53:04.750Z,26.90
2023-03-21T11:55:40.492Z,28.13
2023-03-21T11:58:32.913Z,31.00
2023-03-21T12:01:10.073Z,27.53
2023-03-21T12:03:49.469Z,27.43
2023-03-21T12:06:27.088Z,30.10
2023-03-21T12:09:05.560Z,30.97
2023-03-21T12:11:44.159Z,31.37
2023-03-21T12:14:18.323Z,31.03
2023-03-21T12:16:56.764Z,30.33
2023-03-21T12:19:43.563Z,31.37
2023-03-21T12:22:25.829Z,33.10
2023-03-21T12:24:56.158Z,36.30
2023-03-21T12:27:36.978Z,34.70
2023-03-21T12:30:24.318Z,33.20
2023-03-21T12:33:06.397Z,33.37
2023-03-21T12:35:50.616Z,37.37
2023-03-21T12:38:26.185Z,33.57
2023-03-21T12:41:20.180Z,36.50
2023-03-21T12:43:55.456Z,36.87
2023-03-21T12:46:28.357Z,35.20
2023-03-21T12:49:01.097Z,37.10
2023-03-21T12:51:32.995Z,39.23
2023-03-21T12:54:08.935Z,36.43
2023-03-21T12:56:47.800Z,36.97
2023-03-21T12:59:23.832Z,38.50
2023-03-21T13:01:55.996Z,35.93
2023-03-21T13:04:40.048Z,38.07
2023-03-21T13:07:13.687Z,32.47
2023-03-21T13:09:43.360Z,36.57
2023-03-21T13:12:27.181Z,31.03
2023-03-21T13:15:12.459Z,33.50
2023-03-21T13:17:49.165Z,30.57
2023-03-21T13:20:23.437Z,29.13
2023-03-21T13:22:51.462Z,31.53
2023-03-21T13:25:23.427Z,32.83
2023-03-21T13:27:56.260Z,30.40
2023-03-21T13:30:27.179Z,32.17
2023-03-21T13:33:06.397Z,31.07
2023-03-21T13:35:38.558Z,29.97
2023-03-21T13:38:15.051Z,33.40
2023-03-21T13:40:48.705Z,29.97
2023-03-21T13:43:43.031Z,29.50
2023-03-21T13:46:12.654Z,28.90
2023-03-21T13:49:00.277Z,28.47
2023-03-21T13:51:47.462Z,25.57
2023-03-21T13:54:24.073Z,23.63
2023-03-21T13:56:55.375Z,22.40
2023-03-21T13:59:42.499Z,24.03
2023-03-21T14:02:32.824Z,22.70
2023-03-21T14:05:06.012Z,22.63
2023-03-21T14:07:36.868Z,20.40
2023-03-21T14:10:09.547Z,20.20
2023-03-21T14:12:43.397Z,20.90
2023-03-21T14:15:20.413Z,20.93
2023-03-21T14:17:54.364Z,20.63
2023-03-21T14:20:25.365Z,21.10
2023-03-21T14:22:53.715Z,21.63
2023-03-21T14:25:27.182Z,22.07
2023-03-21T14:28:01.185Z,21.77
2023-03-21T14:30:33.234Z,19.80
2023-03-21T14:33:06.799Z,21.43
2023-03-21T14:35:35.220Z,19.00
2023-03-21T14:38:07.312Z,23.80
2023-03-21T14:40:35.761Z,18.53
2023-03-21T14:43:07.292Z,21.23
2023-03-21T14:45:37.440Z,23.43
2023-03-21T14:48:07.662Z,21.67
2023-03-21T14:50:41.399Z,20.67
2023-03-21T14:53:16.352Z,20.63
2023-03-21T14:55:46.218Z,21.27
2023-03-21T14:58:17.962Z,21.83
2023-03-21T15:00:50.499Z,21.13
2023-03-21T15:03:19.920Z,22.57
2023-03-21T15:05:48.064Z,23.23
2023-03-21T15:08:18.349Z,21.17
2023-03-21T15:11:06.288Z,22.90
2023-03-21T15:13:41.207Z,22.27
2023-03-21T15:16:10.978Z,20.63
2023-03-21T15:18:41.153Z,20.73
2023-03-21T15:21:12.267Z,20.10
2023-03-21T15:23:43.986Z,19.97
2023-03-21T15:26:17.308Z,21.40
2023-03-21T15:28:49.101Z,20.37
2023-03-21T15:31:19.424Z,19.07
2023-03-21T15:33:48.749Z,18.17
2023-03-21T15:36:20.475Z,20.17
2023-03-21T15:38:49.579Z,20.77
2023-03-21T15:41:28.333Z,20.07
2023-03-21T15:44:03.866Z,23.23
2023-03-21T15:46:41.866Z,19.90
2023-03-21T15:49:11.486Z,21.40
2023-03-21T15:51:39.737Z,20.40
2023-03-21T15:54:15.154Z,21.67
2023-03-21T15:56:45.863Z,22.37
2023-03-21T15:59:19.469Z,20.33
2023-03-21T16:01:48.752Z,19.80
2023-03-21T16:04:18.380Z,19.40
2023-03-21T16:06:55.030Z,20.80
2023-03-21T16:09:23.475Z,21.23
2023-03-21T16:11:52.628Z,20.63
2023-03-21T16:14:22.816Z,21.30
2023-03-21T16:16:51.573Z,21.67
2023-03-21T16:19:19.534Z,22.00
2023-03-21T16:21:48.412Z,22.07
2023-03-21T16:24:16.338Z,19.03
2023-03-21T16:26:47.651Z,22.60
2023-03-21T16:29:16.503Z,20.77
2023-03-21T16:31:48.813Z,19.80
2023-03-21T16:34:16.893Z,20.23
2023-03-21T16:36:44.795Z,21.33
2023-03-21T16:39:18.248Z,19.03
2023-03-21T16:41:46.602Z,19.83
2023-03-21T16:44:14.652Z,18.40
2023-03-21T16:46:42.706Z,19.13
2023-03-21T16:49:20.449Z,20.37
2023-03-21T16:51:49.258Z,17.27
2023-03-21T16:54:17.306Z,17.87
2023-03-21T16:56:48.409Z,19.10
2023-03-21T16:59:16.711Z,19.53
2023-03-21T17:01:46.164Z,18.10
2023-03-21T17:04:15.990Z,19.83
2023-03-21T17:06:47.576Z,18.27
2023-03-21T17:09:17.597Z,19.63
2023-03-21T17:11:46.541Z,17.77
2023-03-21T17:14:16.732Z,22.60
2023-03-21T17:16:45.683Z,16.30
2023-03-21T17:19:16.044Z,15.60
2023-03-21T17:21:46.486Z,14.47
2023-03-21T17:24:14.743Z,15.60
2023-03-21T17:26:42.708Z,15.53
2023-03-21T17:29:13.060Z,16.10
2023-03-21T17:31:42.505Z,16.00
2023-03-21T17:34:10.942Z,17.30
2023-03-21T17:36:41.199Z,15.73
2023-03-21T17:39:17.766Z,19.53
2023-03-21T17:41:45.756Z,15.97
2023-03-21T17:44:13.638Z,17.37
2023-03-21T17:46:41.712Z,15.97
2023-03-21T17:49:13.796Z,16.83
2023-03-21T17:51:41.938Z,17.50
2023-03-21T17:54:11.416Z,15.53
2023-03-21T17:56:41.635Z,21.00
2023-03-21T17:59:14.387Z,20.13
2023-03-21T18:01:42.720Z,16.37
2023-03-21T18:04:11.061Z,17.27
2023-03-21T18:06:39.364Z,17.03
2023-03-21T18:09:11.387Z,17.33
2023-03-21T18:11:41.543Z,22.70
2023-03-21T18:14:19.493Z,23.37
2023-03-21T18:16:54.089Z,22.80
2023-03-21T18:19:22.129Z,22.73
2023-03-21T18:21:50.300Z,20.73
2023-03-21T18:24:18.244Z,19.83
2023-03-21T18:26:47.790Z,19.40
2023-03-21T18:32:08.343Z,18.27
2023-03-21T18:34:39.385Z,21.50
2023-03-21T18:37:08.495Z,20.50
2023-03-21T18:39:37.101Z,22.27
2023-03-21T18:42:07.476Z,19.60
2023-03-21T18:44:46.788Z,18.87
2023-03-21T18:47:16.996Z,21.70
2023-03-21T18:52:33.529Z,19.50
2023-03-21T18:55:02.681Z,23.10
2023-03-21T18:57:36.916Z,24.83
2023-03-21T19:00:12.401Z,22.30
2023-03-21T19:02:45.525Z,27.10
2023-03-21T19:05:15.527Z,24.67
2023-03-21T19:07:43.522Z,21.80
2023-03-21T19:10:18.142Z,23.93
2023-03-21T19:12:47.938Z,22.57
2023-03-21T19:15:18.596Z,26.67
2023-03-21T19:18:26.608Z,24.43
2023-03-21T19:20:35.095Z,25.57
2023-03-21T19:23:03.281Z,26.23
2023-03-21T19:25:31.346Z,25.27
2023-03-21T19:28:00.675Z,26.33
2023-03-21T19:30:28.667Z,26.37
2023-03-21T19:32:56.768Z,25.70
2023-03-21T19:35:25.220Z,29.50
2023-03-21T19:37:53.302Z,27.87
2023-03-21T19:40:21.653Z,26.70
2023-03-21T19:42:49.624Z,27.07
2023-03-21T19:45:19.156Z,27.53
2023-03-21T19:47:47.186Z,29.13
2023-03-21T19:50:47.313Z,27.70
2023-03-21T19:53:03.242Z,27.63
2023-03-21T19:55:31.402Z,28.60
2023-03-21T19:57:59.589Z,33.83
2023-03-21T20:00:29.194Z,30.70
2023-03-21T20:02:57.266Z,27.53
2023-03-21T20:05:26.045Z,31.27
2023-03-21T20:07:55.353Z,30.67
2023-03-21T20:10:23.571Z,29.60
2023-03-21T20:12:51.620Z,30.67
2023-03-21T20:15:21.805Z,29.37
2023-03-21T20:17:52.316Z,28.93
2023-03-21T20:20:21.249Z,31.13
2023-03-21T20:23:11.018Z,35.70
2023-03-21T20:25:43.137Z,32.33
2023-03-21T20:28:16.462Z,30.53
2023-03-21T20:30:52.836Z,33.83
2023-03-21T20:33:23.209Z,31.20
2023-03-21T20:38:45.525Z,35.87
2023-03-21T20:41:13.704Z,36.53
2023-03-21T20:46:31.404Z,38.80
2023-03-21T20:49:00.773Z,33.07
2023-03-21T20:54:17.760Z,34.33
2023-03-21T20:56:45.796Z,39.20
2023-03-21T20:59:26.114Z,33.77
2023-03-21T21:01:55.166Z,38.47
2023-03-21T21:04:42.847Z,37.93
2023-03-21T21:07:15.972Z,35.63
2023-03-21T21:09:45.068Z,35.37
2023-03-21T21:12:14.379Z,37.63
2023-03-21T21:14:43.541Z,36.40
2023-03-21T21:17:54.193Z,37.43
2023-03-21T21:20:08.656Z,37.77
2023-03-21T21:22:38.871Z,41.23
2023-03-21T21:25:07.949Z,36.93
2023-03-21T21:27:36.040Z,35.90
2023-03-21T21:30:04.311Z,33.70
2023-03-21T21:32:32.316Z,35.93
2023-03-21T21:35:01.644Z,39.80
2023-03-21T21:37:33.821Z,34.83
2023-03-21T21:40:12.599Z,32.77
2023-03-21T21:42:42.565Z,32.23
2023-03-21T21:45:12.589Z,34.80
2023-03-21T21:47:41.440Z,33.33
2023-03-21T21:50:11.382Z,37.93
2023-03-21T21:52:39.538Z,36.73
2023-03-21T21:55:08.092Z,34.47
2023-03-21T21:57:36.266Z,33.80
2023-03-21T22:00:06.486Z,33.73
2023-03-21T22:02:39.766Z,35.90
2023-03-21T22:05:08.779Z,35.70
2023-03-21T22:07:38.955Z,36.97
2023-03-21T22:10:08.165Z,34.23
2023-03-21T22:12:36.139Z,32.20
2023-03-21T22:15:04.845Z,31.23
2023-03-21T22:17:32.722Z,31.00
2023-03-21T22:20:06.024Z,36.13
2023-03-21T22:22:34.741Z,31.70
2023-03-21T22:25:04.530Z,31.70
2023-03-21T22:27:32.953Z,29.43
2023-03-21T22:30:04.567Z,31.87
2023-03-21T22:32:32.551Z,29.43
2023-03-21T22:35:02.284Z,28.00
2023-03-21T22:37:30.521Z,28.37
2023-03-21T22:39:58.390Z,29.83
2023-03-21T22:42:28.281Z,27.40
2023-03-21T22:44:56.230Z,27.63
2023-03-21T22:47:24.206Z,26.93
2023-03-21T22:49:52.199Z,29.67
2023-03-21T22:52:20.328Z,29.63
2023-03-21T22:54:49.106Z,25.63
2023-03-21T22:57:17.909Z,27.03
2023-03-21T22:59:48.185Z,26.03
2023-03-21T23:02:16.422Z,25.37
2023-03-21T23:04:44.506Z,26.87
2023-03-21T23:07:12.537Z,24.90
2023-03-21T23:09:40.622Z,23.70
2023-03-21T23:12:08.675Z,24.17
2023-03-21T23:14:36.694Z,27.87
2023-03-21T23:17:05.954Z,22.00
2023-03-21T23:19:33.893Z,22.70
2023-03-21T23:22:01.857Z,29.60
2023-03-21T23:24:29.756Z,21.30
2023-03-21T23:26:57.729Z,22.87
2023-03-21T23:29:25.863Z,25.17
2023-03-21T23:31:53.818Z,22.00
2023-03-21T23:34:23.262Z,23.07
2023-03-21T23:36:51.504Z,20.93
2023-03-21T23:39:20.165Z,22.77
2023-03-21T23:41:48.114Z,22.53
2023-03-21T23:44:16.306Z,23.13
2023-03-21T23:46:44.286Z,24.03
2023-03-21T23:49:14.967Z,21.93
2023-03-21T23:51:44.718Z,22.17
2023-03-21T23:54:12.650Z,21.87
2023-03-21T23:56:40.569Z,20.73
2023-03-21T23:59:08.565Z,21.93
